Time;durP1;ratioP1;P1;durP2;ratioP2;P2;SDS_P1;SDS_P2;PMS_P1;PMS_P2;Temp;Humidity;BMP_temperature;BMP_pressure;BME280_temperature;BME280_humidity;BME280_pressure;Samples;Min_cycle;Max_cycle;Signal;HPM_P1;HPM_P2
2024/04/07 00:02:04;;;;;;;;;;;;;;;;;;5008556;28;4653;-67
2024/04/07 00:04:29;;;;;;;;;;;;;;;;;;5008329;28;4675;-67
2024/04/07 00:06:55;;;;;;;;;;;;;;;;;;5006614;28;5455;-68
2024/04/07 00:09:20;;;;;;;;;;;;;;;;;;5005853;28;4629;-67
2024/04/07 00:11:45;;;;;;;;;;;;;;;;;;5007003;28;5152;-66
2024/04/07 00:14:11;;;;;;;;;;;;;;;;;;5007313;28;3277;-67
2024/04/07 00:16:36;;;;;;;;;;;;;;;;;;5008072;28;4509;-67
2024/04/07 00:19:01;;;;;;;;;;;;;;;;;;5005048;28;4516;-67
2024/04/07 00:21:27;;;;;;;;;;;;;;;;;;4989794;28;5189;-66
2024/04/07 00:23:53;;;;;;;;;;;;;;;;;;5007806;28;4542;-67
2024/04/07 00:26:19;;;;;;;;;;;;;;;;;;5007322;28;3298;-66
2024/04/07 00:28:44;;;;;;;;;;;;;;;;;;5009547;28;4525;-67
2024/04/07 00:31:10;;;;;;;;;;;;;;;;;;5007423;28;5111;-67
2024/04/07 00:33:35;;;;;;;;;;;;;;;;;;5007742;28;5125;-66
2024/04/07 00:36:01;;;;;;;;;;;;;;;;;;5007164;28;5375;-67
2024/04/07 00:38:26;;;;;;;;;;;;;;;;;;5006312;28;3219;-67
2024/04/07 00:40:53;;;;;;;;;;;;;;;;;;5003974;28;5144;-68
2024/04/07 00:43:19;;;;;;;;;;;;;;;;;;5006096;28;4766;-66
2024/04/07 00:45:44;;;;;;;;;;;;;;;;;;5005375;28;4843;-67
2024/04/07 00:48:10;;;;;;;;;;;;;;;;;;5007259;28;5158;-67
2024/04/07 00:50:35;;;;;;;;;;;;;;;;;;4993038;28;3622;-66
2024/04/07 00:53:03;;;;;;;;;;;;;;;;;;4988701;28;5045;-66
2024/04/07 00:55:29;;;;;;;;;;;;;;;;;;4989391;28;5066;-67
2024/04/07 00:57:54;;;;;;;;;;;;;;;;;;5004096;28;5024;-68
2024/04/07 01:00:20;;;;;;;;;;;;;;;;;;4999390;28;5250;-67
2024/04/07 01:02:45;;;;;;;;;;;;;;;;;;5003410;28;5287;-68
2024/04/07 01:05:10;;;;;;;;;;;;;;;;;;5000516;28;3693;-67
2024/04/07 01:07:36;;;;;;;;;;;;;;;;;;5009390;28;4590;-67
2024/04/07 01:10:01;;;;;;;;;;;;;;;;;;5005857;28;5113;-67
2024/04/07 01:12:26;;;;;;;;;;;;;;;;;;4991687;28;4925;-67
2024/04/07 01:14:52;;;;;;;;;;;;;;;;;;5006125;28;5311;-67
2024/04/07 01:17:17;;;;;;;;;;;;;;;;;;5007026;28;3438;-67
2024/04/07 01:19:43;;;;;;;;;;;;;;;;;;5006556;28;4650;-66
2024/04/07 01:22:08;;;;;;;;;;;;;;;;;;5008734;28;5324;-67
2024/04/07 01:24:34;;;;;;;;;;;;;;;;;;5014120;28;5103;-67
2024/04/07 01:26:59;;;;;;;;;;;;;;;;;;5006066;28;4728;-67
2024/04/07 01:29:25;;;;;;;;;;;;;;;;;;5002844;28;3662;-68
2024/04/07 01:31:50;;;;;;;;;;;;;;;;;;5004388;28;4658;-65
2024/04/07 01:34:15;;;;;;;;;;;;;;;;;;5002780;28;5021;-67
2024/04/07 01:36:41;;;;;;;;;;;;;;;;;;4999723;28;4538;-67
2024/04/07 01:39:07;;;;;;;;;;;;;;;;;;5005407;28;5228;-67
2024/04/07 01:41:33;;;;;;;;;;;;;;;;;;5005106;28;3540;-67
2024/04/07 01:43:59;;;;;;;;;;;;;;;;;;5007419;28;4998;-68
2024/04/07 01:46:24;;;;;;;;;;;;;;;;;;5010725;28;6131;-67
2024/04/07 01:48:49;;;;;;;;;;;;;;;;;;5006837;28;5035;-67
2024/04/07 01:51:15;;;;;;;;;;;;;;;;;;5004319;28;5023;-65
2024/04/07 01:53:40;;;;;;;;;;;;;;;;;;4985502;28;3593;-68
2024/04/07 01:56:06;;;;;;;;;;;;;;;;;;5010359;28;4994;-67
2024/04/07 01:58:32;;;;;;;;;;;;;;;;;;5009751;28;4521;-67
2024/04/07 02:00:58;;;;;;;;;;;;;;;;;;5005771;28;5459;-67
2024/04/07 02:03:23;;;;;;;;;;;;;;;;;;5006360;28;5152;-67
2024/04/07 02:05:49;;;;;;;;;;;;;;;;;;5007641;28;5196;-67
2024/04/07 02:08:15;;;;;;;;;;;;;;;;;;5009669;28;3592;-66
2024/04/07 02:10:49;;;;;;;;;;;;;;;;;;5006599;28;4754;-67
2024/04/07 02:13:14;;;;;;;;;;;;;;;;;;5010558;28;4671;-67
2024/04/07 02:15:40;;;;;;;;;;;;;;;;;;5008039;28;5011;-67
2024/04/07 02:18:05;;;;;;;;;;;;;;;;;;5001573;28;4887;-67
2024/04/07 02:20:30;;;;;;;;;;;;;;;;;;5002424;28;3361;-67
2024/04/07 02:22:56;;;;;;;;;;;;;;;;;;5009402;28;4536;-68
2024/04/07 02:25:21;;;;;;;;;;;;;;;;;;5008993;28;5078;-68
2024/04/07 02:27:46;;;;;;;;;;;;;;;;;;5008880;28;4521;-67
2024/04/07 02:30:12;;;;;;;;;;;;;;;;;;5009565;28;5048;-68
2024/04/07 02:32:37;;;;;;;;;;;;;;;;;;5010048;28;3470;-67
2024/04/07 02:35:03;;;;;;;;;;;;;;;;;;5007810;28;5111;-68
2024/04/07 02:37:29;;;;;;;;;;;;;;;;;;5010654;28;4872;-67
2024/04/07 02:39:54;;;;;;;;;;;;;;;;;;5007430;28;5142;-68
2024/04/07 02:42:20;;;;;;;;;;;;;;;;;;5010715;28;5378;-67
2024/04/07 02:50:13;;;;;;;;;;;;;;;;;;5008847;28;4832;-66
2024/04/07 02:52:38;;;;;;;;;;;;;;;;;;4990874;28;5576;-67
2024/04/07 02:55:04;;;;;;;;;;;;;;;;;;5007408;28;5232;-67
2024/04/07 02:57:29;;;;;;;;;;;;;;;;;;5009586;28;4979;-67
2024/04/07 02:59:55;;;;;;;;;;;;;;;;;;5002864;28;4696;-65
2024/04/07 03:02:20;;;;;;;;;;;;;;;;;;5009188;28;3520;-66
2024/04/07 03:04:49;;;;;;;;;;;;;;;;;;5008842;28;4949;-66
2024/04/07 03:07:14;;;;;;;;;;;;;;;;;;4994131;28;5228;-67
2024/04/07 03:09:39;;;;;;;;;;;;;;;;;;5010079;28;4504;-67
2024/04/07 03:12:05;;;;;;;;;;;;;;;;;;5009473;28;4713;-67
2024/04/07 03:14:31;;;;;;;;;;;;;;;;;;5010155;28;3695;-65
2024/04/07 03:16:58;;;;;;;;;;;;;;;;;;5012185;28;5049;-66
2024/04/07 03:19:23;;;;;;;;;;;;;;;;;;5008319;28;4955;-67
2024/04/07 03:21:48;;;;;;;;;;;;;;;;;;5010391;28;4532;-67
2024/04/07 03:24:14;;;;;;;;;;;;;;;;;;5009590;28;5081;-67
2024/04/07 03:26:39;;;;;;;;;;;;;;;;;;5005175;28;3783;-67
2024/04/07 03:29:05;;;;;;;;;;;;;;;;;;5008032;28;4615;-68
2024/04/07 03:31:31;;;;;;;;;;;;;;;;;;5006842;28;5051;-68
2024/04/07 03:33:56;;;;;;;;;;;;;;;;;;5006137;28;4989;-68
2024/04/07 03:36:21;;;;;;;;;;;;;;;;;;5007566;28;4545;-67
2024/04/07 03:38:47;;;;;;;;;;;;;;;;;;5009824;28;5016;-69
2024/04/07 03:41:12;;;;;;;;;;;;;;;;;;5007197;28;3785;-69
2024/04/07 03:43:38;;;;;;;;;;;;;;;;;;5010546;28;5052;-67
2024/04/07 03:46:03;;;;;;;;;;;;;;;;;;5008147;28;6028;-71
2024/04/07 03:48:30;;;;;;;;;;;;;;;;;;5005760;28;5201;-70
2024/04/07 03:50:56;;;;;;;;;;;;;;;;;;5009402;28;4760;-69
2024/04/07 03:53:22;;;;;;;;;;;;;;;;;;5009817;28;3321;-69
2024/04/07 03:55:47;;;;;;;;;;;;;;;;;;5014303;28;5020;-70
2024/04/07 03:58:12;;;;;;;;;;;;;;;;;;5007335;28;4742;-70
2024/04/07 04:00:38;;;;;;;;;;;;;;;;;;4994091;28;4641;-70
2024/04/07 04:03:04;;;;;;;;;;;;;;;;;;5007616;28;4562;-71
2024/04/07 04:05:29;;;;;;;;;;;;;;;;;;4999046;28;3198;-70
2024/04/07 04:07:55;;;;;;;;;;;;;;;;;;5007266;28;5120;-70
2024/04/07 04:10:20;;;;;;;;;;;;;;;;;;5008780;28;4517;-68
2024/04/07 04:12:46;;;;;;;;;;;;;;;;;;5007261;28;5242;-69
2024/04/07 04:15:11;;;;;;;;;;;;;;;;;;5007026;28;6012;-68
2024/04/07 04:17:36;;;;;;;;;;;;;;;;;;5003717;28;3382;-69
2024/04/07 04:20:03;;;;;;;;;;;;;;;;;;5008450;28;5001;-69
2024/04/07 04:22:28;;;;;;;;;;;;;;;;;;5008574;28;5082;-68
2024/04/07 04:24:55;;;;;;;;;;;;;;;;;;5010038;28;5393;-68
2024/04/07 04:27:20;;;;;;;;;;;;;;;;;;5007473;28;5053;-69
2024/04/07 04:29:46;;;;;;;;;;;;;;;;;;5007723;28;4633;-69
2024/04/07 04:32:12;;;;;;;;;;;;;;;;;;5007690;28;3481;-69
2024/04/07 04:34:37;;;;;;;;;;;;;;;;;;5007392;28;5082;-68
2024/04/07 04:37:03;;;;;;;;;;;;;;;;;;5006710;28;4672;-68
2024/04/07 04:39:28;;;;;;;;;;;;;;;;;;5006428;28;4957;-68
2024/04/07 04:41:53;;;;;;;;;;;;;;;;;;5008462;28;5047;-69
2024/04/07 04:44:19;;;;;;;;;;;;;;;;;;5008300;28;1917;-69
2024/04/07 04:46:45;;;;;;;;;;;;;;;;;;5005120;28;5858;-68
2024/04/07 04:49:11;;;;;;;;;;;;;;;;;;5005533;28;5189;-70
2024/04/07 04:51:36;;;;;;;;;;;;;;;;;;5005944;28;4766;-68
2024/04/07 04:54:02;;;;;;;;;;;;;;;;;;5007011;28;5103;-70
2024/04/07 04:56:27;;;;;;;;;;;;;;;;;;5007495;28;3353;-68
2024/04/07 04:58:54;;;;;;;;;;;;;;;;;;5006105;28;4942;-69
2024/04/07 05:01:19;;;;;;;;;;;;;;;;;;5009350;28;5972;-68
2024/04/07 05:03:45;;;;;;;;;;;;;;;;;;5005719;28;4775;-68
2024/04/07 05:06:14;;;;;;;;;;;;;;;;;;5007288;28;5086;-66
2024/04/07 05:08:39;;;;;;;;;;;;;;;;;;5005194;28;3522;-68
2024/04/07 05:11:05;;;;;;;;;;;;;;;;;;5005090;28;4891;-66
2024/04/07 05:13:31;;;;;;;;;;;;;;;;;;5010095;28;5037;-67
2024/04/07 05:15:56;;;;;;;;;;;;;;;;;;5006463;28;4507;-69
2024/04/07 05:18:23;;;;;;;;;;;;;;;;;;5003743;28;4625;-67
2024/04/07 05:20:49;;;;;;;;;;;;;;;;;;5004747;28;5113;-68
2024/04/07 05:23:14;;;;;;;;;;;;;;;;;;5006919;28;3555;-66
2024/04/07 05:25:40;;;;;;;;;;;;;;;;;;5006147;28;4525;-66
2024/04/07 05:28:05;;;;;;;;;;;;;;;;;;5006623;28;5071;-68
2024/04/07 05:30:31;;;;;;;;;;;;;;;;;;5006294;28;5135;-68
2024/04/07 05:32:56;;;;;;;;;;;;;;;;;;5003889;28;4589;-68
2024/04/07 05:35:21;;;;;;;;;;;;;;;;;;5013274;28;1272;-68
2024/04/07 05:37:47;;;;;;;;;;;;;;;;;;5006972;28;4971;-69
2024/04/07 05:40:12;;;;;;;;;;;;;;;;;;5004573;28;4919;-69
2024/04/07 05:42:38;;;;;;;;;;;;;;;;;;5007189;28;4673;-68
2024/04/07 05:45:03;;;;;;;;;;;;;;;;;;5007652;28;4856;-68
2024/04/07 05:47:29;;;;;;;;;;;;;;;;;;4993915;28;3527;-68
2024/04/07 05:49:54;;;;;;;;;;;;;;;;;;5006207;28;4973;-69
2024/04/07 05:52:19;;;;;;;;;;;;;;;;;;5006883;28;5136;-67
2024/04/07 05:54:45;;;;;;;;;;;;;;;;;;5002840;28;5260;-68
2024/04/07 05:57:10;;;;;;;;;;;;;;;;;;5005855;28;5095;-68
2024/04/07 05:59:35;;;;;;;;;;;;;;;;;;4999824;28;3509;-68
2024/04/07 06:02:01;;;;;;;;;;;;;;;;;;5002208;28;4936;-68
2024/04/07 06:04:26;;;;;;;;;;;;;;;;;;5005912;28;5056;-70
2024/04/07 06:06:51;;;;;;;;;;;;;;;;;;5005141;28;4567;-68
2024/04/07 06:09:17;;;;;;;;;;;;;;;;;;5005532;28;5070;-68
2024/04/07 06:11:42;;;;;;;;;;;;;;;;;;5008169;28;3329;-68
2024/04/07 06:14:08;;;;;;;;;;;;;;;;;;5006052;28;5017;-68
2024/04/07 06:16:34;;;;;;;;;;;;;;;;;;4984162;28;5079;-68
2024/04/07 06:18:59;;;;;;;;;;;;;;;;;;4986000;28;5641;-68
2024/04/07 06:21:24;;;;;;;;;;;;;;;;;;5003749;28;4959;-68
2024/04/07 06:23:50;;;;;;;;;;;;;;;;;;5006073;28;5719;-68
2024/04/07 06:26:15;;;;;;;;;;;;;;;;;;5007283;28;1118;-67
2024/04/07 06:28:41;;;;;;;;;;;;;;;;;;5005997;28;4690;-67
2024/04/07 06:31:06;;;;;;;;;;;;;;;;;;5005690;28;4527;-67
2024/04/07 06:33:31;;;;;;;;;;;;;;;;;;4991205;28;5066;-67
2024/04/07 06:35:57;;;;;;;;;;;;;;;;;;5003448;28;4531;-66
2024/04/07 06:38:22;;;;;;;;;;;;;;;;;;5006806;28;3380;-68
2024/04/07 06:40:48;;;;;;;;;;;;;;;;;;5006160;28;5097;-67
2024/04/07 06:43:13;;;;;;;;;;;;;;;;;;5010590;28;4689;-68
2024/04/07 06:45:38;;;;;;;;;;;;;;;;;;5009315;28;5069;-68
2024/04/07 06:48:04;;;;;;;;;;;;;;;;;;5009657;28;5103;-68
2024/04/07 06:50:32;;;;;;;;;;;;;;;;;;4977124;28;6286;-67
2024/04/07 06:52:58;;;;;;;;;;;;;;;;;;5008099;28;4492;-68
2024/04/07 06:55:23;;;;;;;;;;;;;;;;;;5005693;28;5119;-68
2024/04/07 06:57:48;;;;;;;;;;;;;;;;;;5005462;28;3699;-68
2024/04/07 07:00:14;;;;;;;;;;;;;;;;;;4990934;28;4477;-67
2024/04/07 07:02:39;;;;;;;;;;;;;;;;;;5003875;28;4550;-67
2024/04/07 07:05:05;;;;;;;;;;;;;;;;;;5004164;28;4502;-54
2024/04/07 07:07:30;;;;;;;;;;;;;;;;;;4988051;28;4913;-51
2024/04/07 07:09:56;;;;;;;;;;;;;;;;;;5006576;28;5190;-55
2024/04/07 07:12:21;;;;;;;;;;;;;;;;;;4999905;28;3832;-54
2024/04/07 07:14:47;;;;;;;;;;;;;;;;;;5001387;28;5140;-54
2024/04/07 07:17:13;;;;;;;;;;;;;;;;;;4992581;28;4767;-56
2024/04/07 07:19:38;;;;;;;;;;;;;;;;;;5006196;28;5080;-55
2024/04/07 07:22:03;;;;;;;;;;;;;;;;;;5003889;28;5102;-52
2024/04/07 07:24:29;;;;;;;;;;;;;;;;;;5008247;28;3686;-55
2024/04/07 07:26:54;;;;;;;;;;;;;;;;;;4988807;28;5078;-55
2024/04/07 07:29:19;;;;;;;;;;;;;;;;;;5007890;28;4883;-55
2024/04/07 07:31:45;;;;;;;;;;;;;;;;;;5008144;28;5094;-53
2024/04/07 07:34:10;;;;;;;;;;;;;;;;;;5003299;28;5042;-57
2024/04/07 07:36:36;;;;;;;;;;;;;;;;;;5007870;28;3624;-53
2024/04/07 07:39:01;;;;;;;;;;;;;;;;;;4989418;28;4529;-54
2024/04/07 07:41:26;;;;;;;;;;;;;;;;;;5005652;28;5139;-53
2024/04/07 07:43:52;;;;;;;;;;;;;;;;;;5004944;28;4618;-55
2024/04/07 07:46:17;;;;;;;;;;;;;;;;;;5010196;28;4733;-56
2024/04/07 07:48:42;;;;;;;;;;;;;;;;;;5007874;28;3547;-52
2024/04/07 07:51:09;;;;;;;;;;;;;;;;;;5001349;28;4482;-51
2024/04/07 07:53:34;;;;;;;;;;;;;;;;;;4998217;28;4995;-55
2024/04/07 07:56:00;;;;;;;;;;;;;;;;;;5005409;28;4569;-56
2024/04/07 07:58:25;;;;;;;;;;;;;;;;;;5003967;28;4711;-54
2024/04/07 08:00:51;;;;;;;;;;;;;;;;;;5005635;28;4798;-53
2024/04/07 08:03:16;;;;;;;;;;;;;;;;;;5002970;28;3495;-55
2024/04/07 08:05:41;;;;;;;;;;;;;;;;;;5006381;28;5096;-54
2024/04/07 08:08:07;;;;;;;;;;;;;;;;;;5003791;28;5075;-57
2024/04/07 08:10:32;;;;;;;;;;;;;;;;;;5002594;28;4908;-68
2024/04/07 08:12:57;;;;;;;;;;;;;;;;;;5008859;28;5004;-68
2024/04/07 08:15:23;;;;;;;;;;;;;;;;;;5007995;28;3599;-68
2024/04/07 08:17:48;;;;;;;;;;;;;;;;;;5010355;28;5349;-68
2024/04/07 08:20:14;;;;;;;;;;;;;;;;;;5008166;28;5055;-69
2024/04/07 08:22:39;;;;;;;;;;;;;;;;;;5005835;28;5149;-68
2024/04/07 08:25:05;;;;;;;;;;;;;;;;;;5005585;28;5072;-69
2024/04/07 08:27:31;;;;;;;;;;;;;;;;;;5003229;28;4071;-56
2024/04/07 08:29:56;;;;;;;;;;;;;;;;;;5005250;28;4865;-56
2024/04/07 08:32:22;;;;;;;;;;;;;;;;;;5006980;28;4471;-54
2024/04/07 08:34:47;;;;;;;;;;;;;;;;;;4989057;28;4727;-54
2024/04/07 08:37:12;;;;;;;;;;;;;;;;;;5007241;28;5044;-55
2024/04/07 08:39:38;;;;;;;;;;;;;;;;;;5009727;28;1137;-55
2024/04/07 08:42:03;;;;;;;;;;;;;;;;;;5004418;28;4644;-54
2024/04/07 08:44:29;;;;;;;;;;;;;;;;;;4992628;28;4779;-55
2024/04/07 08:46:54;;;;;;;;;;;;;;;;;;5003564;28;4627;-57
2024/04/07 08:49:20;;;;;;;;;;;;;;;;;;4989237;28;5049;-55
2024/04/07 08:51:45;;;;;;;;;;;;;;;;;;5002997;28;3457;-56
2024/04/07 08:54:11;;;;;;;;;;;;;;;;;;4988763;28;4931;-57
2024/04/07 08:56:37;;;;;;;;;;;;;;;;;;4999970;28;5051;-54
2024/04/07 08:59:02;;;;;;;;;;;;;;;;;;5005160;28;4531;-53
2024/04/07 09:01:31;;;;;;;;;;;;;;;;;;4985292;28;5029;-58
2024/04/07 09:03:59;;;;;;;;;;;;;;;;;;5006881;28;5137;-53
2024/04/07 09:06:25;;;;;;;;;;;;;;;;;;5007101;28;3404;-56
2024/04/07 09:08:51;;;;;;;;;;;;;;;;;;5007354;28;5028;-59
2024/04/07 09:11:16;;;;;;;;;;;;;;;;;;4985806;28;5102;-55
2024/04/07 09:13:41;;;;;;;;;;;;;;;;;;5002070;28;4994;-53
2024/04/07 09:16:07;;;;;;;;;;;;;;;;;;5000463;28;5079;-55
2024/04/07 09:18:32;;;;;;;;;;;;;;;;;;4983887;28;3647;-54
2024/04/07 09:20:57;;;;;;;;;;;;;;;;;;5000884;28;4688;-53
2024/04/07 09:23:23;;;;;;;;;;;;;;;;;;4983598;28;5120;-51
2024/04/07 09:25:51;;;;;;;;;;;;;;;;;;5004062;28;5103;-54
2024/04/07 09:28:16;;;;;;;;;;;;;;;;;;4998885;28;4867;-54
2024/04/07 09:30:45;;;;;;;;;;;;;;;;;;5008491;28;3491;-52
2024/04/07 09:33:11;;;;;;;;;;;;;;;;;;4988582;28;5180;-51
2024/04/07 09:35:36;;;;;;;;;;;;;;;;;;4989133;28;4916;-52
2024/04/07 09:38:02;;;;;;;;;;;;;;;;;;5006231;28;5086;-54
2024/04/07 09:40:27;;;;;;;;;;;;;;;;;;5007770;28;5311;-54
2024/04/07 09:42:53;;;;;;;;;;;;;;;;;;5006122;28;4757;-54
2024/04/07 09:45:18;;;;;;;;;;;;;;;;;;5007744;28;1153;-53
2024/04/07 09:47:44;;;;;;;;;;;;;;;;;;5005938;28;4562;-54
2024/04/07 09:50:09;;;;;;;;;;;;;;;;;;4984341;28;5256;-53
2024/04/07 09:52:38;;;;;;;;;;;;;;;;;;5006320;28;5006;-53
2024/04/07 09:55:06;;;;;;;;;;;;;;;;;;4982504;28;5183;-53
2024/04/07 09:57:31;;;;;;;;;;;;;;;;;;5004196;28;1120;-55
2024/04/07 09:59:56;;;;;;;;;;;;;;;;;;5006020;28;5037;-54
2024/04/07 10:02:22;;;;;;;;;;;;;;;;;;5009412;28;4574;-53
2024/04/07 10:04:47;;;;;;;;;;;;;;;;;;5005776;28;4602;-50
2024/04/07 10:07:13;;;;;;;;;;;;;;;;;;5002492;28;5158;-52
2024/04/07 10:09:38;;;;;;;;;;;;;;;;;;5005886;28;1209;-53
2024/04/07 10:12:04;;;;;;;;;;;;;;;;;;5007497;28;4506;-52
2024/04/07 10:14:39;;;;;;;;;;;;;;;;;;5003421;28;5004;-52
2024/04/07 10:17:05;;;;;;;;;;;;;;;;;;5011591;28;4649;-54
2024/04/07 10:19:30;;;;;;;;;;;;;;;;;;5008715;28;4604;-54
2024/04/07 10:21:56;;;;;;;;;;;;;;;;;;5010155;28;4509;-53
2024/04/07 10:24:21;;;;;;;;;;;;;;;;;;5010102;28;1910;-53
2024/04/07 10:26:53;;;;;;;;;;;;;;;;;;5014230;28;4901;-53
2024/04/07 10:29:18;;;;;;;;;;;;;;;;;;5010265;28;5111;-53
2024/04/07 10:31:43;;;;;;;;;;;;;;;;;;5010339;28;4764;-53
2024/04/07 10:34:09;;;;;;;;;;;;;;;;;;5010672;28;5188;-53
2024/04/07 10:36:34;;;;;;;;;;;;;;;;;;5010088;28;2430;-53
2024/04/07 10:39:00;;;;;;;;;;;;;;;;;;5010607;28;4497;-54
2024/04/07 10:41:30;;;;;;;;;;;;;;;;;;5011538;28;4545;-53
2024/04/07 10:43:56;;;;;;;;;;;;;;;;;;5012232;28;5150;-53
2024/04/07 10:46:21;;;;;;;;;;;;;;;;;;5010639;28;4517;-50
2024/04/07 10:48:47;;;;;;;;;;;;;;;;;;4991890;28;3489;-52
2024/04/07 10:51:12;;;;;;;;;;;;;;;;;;5008748;28;4527;-53
2024/04/07 10:53:41;;;;;;;;;;;;;;;;;;4996175;28;5224;-54
2024/04/07 10:56:06;;;;;;;;;;;;;;;;;;5007417;28;5067;-52
2024/04/07 10:58:32;;;;;;;;;;;;;;;;;;4986217;28;5082;-52
2024/04/07 11:00:57;;;;;;;;;;;;;;;;;;4991327;28;5074;-54
2024/04/07 11:03:23;;;;;;;;;;;;;;;;;;5007466;28;3379;-52
2024/04/07 11:05:48;;;;;;;;;;;;;;;;;;5003636;28;5875;-51
2024/04/07 11:08:14;;;;;;;;;;;;;;;;;;4995789;28;4692;-52
2024/04/07 11:10:39;;;;;;;;;;;;;;;;;;5009744;28;5037;-55
2024/04/07 11:13:08;;;;;;;;;;;;;;;;;;5005838;28;4468;-53
2024/04/07 11:15:33;;;;;;;;;;;;;;;;;;5005512;28;1118;-52
2024/04/07 11:17:59;;;;;;;;;;;;;;;;;;5006954;28;5204;-51
2024/04/07 11:20:24;;;;;;;;;;;;;;;;;;4988452;28;5459;-54
2024/04/07 11:22:49;;;;;;;;;;;;;;;;;;5007061;28;4735;-53
2024/04/07 11:25:15;;;;;;;;;;;;;;;;;;5005221;28;4528;-55
2024/04/07 11:27:40;;;;;;;;;;;;;;;;;;5008766;28;3655;-52
2024/04/07 11:30:06;;;;;;;;;;;;;;;;;;5009271;28;5031;-53
2024/04/07 11:32:32;;;;;;;;;;;;;;;;;;4990887;28;4529;-54
2024/04/07 11:34:59;;;;;;;;;;;;;;;;;;5008897;28;5166;-51
2024/04/07 11:37:24;;;;;;;;;;;;;;;;;;5004308;28;4504;-52
2024/04/07 11:39:52;;;;;;;;;;;;;;;;;;5010373;28;1124;-52
2024/04/07 11:42:22;;;;;;;;;;;;;;;;;;5009925;28;5131;-54
2024/04/07 11:44:48;;;;;;;;;;;;;;;;;;5008800;28;4569;-52
2024/04/07 11:47:13;;;;;;;;;;;;;;;;;;5009318;28;4658;-52
2024/04/07 11:49:39;;;;;;;;;;;;;;;;;;5008107;28;4554;-53
2024/04/07 11:52:04;;;;;;;;;;;;;;;;;;5008113;28;5030;-51
2024/04/07 11:54:29;;;;;;;;;;;;;;;;;;5009268;28;3375;-54
2024/04/07 11:56:55;;;;;;;;;;;;;;;;;;5009793;28;4605;-53
2024/04/07 11:59:20;;;;;;;;;;;;;;;;;;5009037;28;5151;-53
2024/04/07 12:01:46;;;;;;;;;;;;;;;;;;5008502;28;4540;-52
2024/04/07 12:04:11;;;;;;;;;;;;;;;;;;5009199;28;5222;-52
2024/04/07 12:06:37;;;;;;;;;;;;;;;;;;5009512;28;1170;-53
2024/04/07 12:09:05;;;;;;;;;;;;;;;;;;4988550;28;4477;-52
2024/04/07 12:11:30;;;;;;;;;;;;;;;;;;5006210;28;5224;-53
2024/04/07 12:13:56;;;;;;;;;;;;;;;;;;5009278;28;5001;-53
2024/04/07 12:16:21;;;;;;;;;;;;;;;;;;5008213;28;4696;-54
2024/04/07 12:18:46;;;;;;;;;;;;;;;;;;5009376;28;3674;-51
2024/04/07 12:21:12;;;;;;;;;;;;;;;;;;5007368;28;4975;-51
2024/04/07 12:23:37;;;;;;;;;;;;;;;;;;5009173;28;4994;-53
2024/04/07 12:26:02;;;;;;;;;;;;;;;;;;5009246;28;4728;-50
2024/04/07 12:28:28;;;;;;;;;;;;;;;;;;5005493;28;5040;-51
2024/04/07 12:30:55;;;;;;;;;;;;;;;;;;5006064;28;5245;-55
2024/04/07 12:33:20;;;;;;;;;;;;;;;;;;5003245;28;3636;-53
2024/04/07 12:35:47;;;;;;;;;;;;;;;;;;5002079;28;4466;-59
2024/04/07 12:38:12;;;;;;;;;;;;;;;;;;4981001;28;4568;-59
2024/04/07 12:40:38;;;;;;;;;;;;;;;;;;5006795;28;5089;-54
2024/04/07 12:43:03;;;;;;;;;;;;;;;;;;5006049;28;5081;-55
2024/04/07 12:45:28;;;;;;;;;;;;;;;;;;5012022;28;3214;-57
2024/04/07 12:47:54;;;;;;;;;;;;;;;;;;5003598;28;4645;-58
2024/04/07 12:50:19;;;;;;;;;;;;;;;;;;5004255;28;5052;-57
2024/04/07 12:52:47;;;;;;;;;;;;;;;;;;5003691;28;4710;-58
2024/04/07 12:55:12;;;;;;;;;;;;;;;;;;4988117;28;4633;-64
2024/04/07 12:57:38;;;;;;;;;;;;;;;;;;5007524;28;3594;-51
2024/04/07 13:00:06;;;;;;;;;;;;;;;;;;5010344;28;5093;-55
2024/04/07 13:02:31;;;;;;;;;;;;;;;;;;5003581;28;5108;-53
2024/04/07 13:04:56;;;;;;;;;;;;;;;;;;5005538;28;5061;-57
2024/04/07 13:07:22;;;;;;;;;;;;;;;;;;5003504;28;5117;-56
2024/04/07 13:09:47;;;;;;;;;;;;;;;;;;5006086;28;3546;-57
2024/04/07 13:12:12;;;;;;;;;;;;;;;;;;4993502;28;4787;-56
2024/04/07 13:14:38;;;;;;;;;;;;;;;;;;5001350;28;5097;-59
2024/04/07 13:17:03;;;;;;;;;;;;;;;;;;5006348;28;4692;-58
2024/04/07 13:19:28;;;;;;;;;;;;;;;;;;4987057;28;4603;-56
2024/04/07 13:21:54;;;;;;;;;;;;;;;;;;5004333;28;4515;-58
2024/04/07 13:24:19;;;;;;;;;;;;;;;;;;5005182;28;3643;-55
2024/04/07 13:26:45;;;;;;;;;;;;;;;;;;5005306;28;5090;-56
2024/04/07 13:29:10;;;;;;;;;;;;;;;;;;5007295;28;5178;-55
2024/04/07 13:31:35;;;;;;;;;;;;;;;;;;5004847;28;5159;-54
2024/04/07 13:34:02;;;;;;;;;;;;;;;;;;5005217;28;5036;-54
2024/04/07 13:36:27;;;;;;;;;;;;;;;;;;5002514;28;3599;-57
2024/04/07 13:38:53;;;;;;;;;;;;;;;;;;5004986;28;4495;-55
2024/04/07 13:41:18;;;;;;;;;;;;;;;;;;5005694;28;4536;-58
2024/04/07 13:43:43;;;;;;;;;;;;;;;;;;5004849;28;4626;-54
2024/04/07 13:46:09;;;;;;;;;;;;;;;;;;4997688;28;4686;-57
2024/04/07 13:48:34;;;;;;;;;;;;;;;;;;5006229;28;3436;-55
2024/04/07 13:50:59;;;;;;;;;;;;;;;;;;5003205;28;5038;-58
2024/04/07 13:53:27;;;;;;;;;;;;;;;;;;5005407;28;4589;-57
2024/04/07 13:55:52;;;;;;;;;;;;;;;;;;5005118;28;4985;-56
2024/04/07 13:58:18;;;;;;;;;;;;;;;;;;5006269;28;5007;-57
2024/04/07 14:00:45;;;;;;;;;;;;;;;;;;4981329;28;3779;-55
2024/04/07 14:03:10;;;;;;;;;;;;;;;;;;5001234;28;4969;-56
2024/04/07 14:05:37;;;;;;;;;;;;;;;;;;5003313;28;5028;-56
2024/04/07 14:08:03;;;;;;;;;;;;;;;;;;4999439;28;4521;-55
2024/04/07 14:10:29;;;;;;;;;;;;;;;;;;5004521;28;5562;-56
2024/04/07 14:12:55;;;;;;;;;;;;;;;;;;5005740;28;5130;-58
2024/04/07 14:15:20;;;;;;;;;;;;;;;;;;5005303;28;3591;-56
2024/04/07 14:17:45;;;;;;;;;;;;;;;;;;5002577;28;5241;-57
2024/04/07 14:20:11;;;;;;;;;;;;;;;;;;5002727;28;5241;-58
2024/04/07 14:22:36;;;;;;;;;;;;;;;;;;5004144;28;4523;-57
2024/04/07 14:25:02;;;;;;;;;;;;;;;;;;5004443;28;5079;-56
2024/04/07 14:27:27;;;;;;;;;;;;;;;;;;5005682;28;3479;-55
2024/04/07 14:29:53;;;;;;;;;;;;;;;;;;5003817;28;4971;-57
2024/04/07 14:32:18;;;;;;;;;;;;;;;;;;5004051;28;4519;-58
2024/04/07 14:34:45;;;;;;;;;;;;;;;;;;4986349;28;5144;-58
2024/04/07 14:37:10;;;;;;;;;;;;;;;;;;5002004;28;5048;-57
2024/04/07 14:39:35;;;;;;;;;;;;;;;;;;5005441;28;3781;-62
2024/04/07 14:42:01;;;;;;;;;;;;;;;;;;5004609;28;4921;-64
2024/04/07 14:44:26;;;;;;;;;;;;;;;;;;5003963;28;5188;-72
2024/04/07 14:46:52;;;;;;;;;;;;;;;;;;4997516;28;4788;-61
2024/04/07 14:49:17;;;;;;;;;;;;;;;;;;5002879;28;5106;-65
2024/04/07 14:51:43;;;;;;;;;;;;;;;;;;5001780;28;3658;-66
2024/04/07 14:54:11;;;;;;;;;;;;;;;;;;5000145;28;4478;-67
2024/04/07 14:56:37;;;;;;;;;;;;;;;;;;5004449;28;4534;-65
2024/04/07 14:59:02;;;;;;;;;;;;;;;;;;5004850;28;5026;-64
2024/04/07 15:01:28;;;;;;;;;;;;;;;;;;5003565;28;5103;-67
2024/04/07 15:03:54;;;;;;;;;;;;;;;;;;5009779;28;5190;-64
2024/04/07 15:06:21;;;;;;;;;;;;;;;;;;5004647;28;3686;-69
2024/04/07 15:08:47;;;;;;;;;;;;;;;;;;5006152;28;4973;-64
2024/04/07 15:11:12;;;;;;;;;;;;;;;;;;5008371;28;4665;-64
2024/04/07 15:13:37;;;;;;;;;;;;;;;;;;5003978;28;4932;-67
2024/04/07 15:16:04;;;;;;;;;;;;;;;;;;5009391;28;4529;-62
2024/04/07 15:18:30;;;;;;;;;;;;;;;;;;5001153;28;3780;-67
2024/04/07 15:20:59;;;;;;;;;;;;;;;;;;5008843;28;4548;-61
2024/04/07 15:23:24;;;;;;;;;;;;;;;;;;5006260;28;4699;-66
2024/04/07 15:25:50;;;;;;;;;;;;;;;;;;5008918;28;4723;-67
2024/04/07 15:28:15;;;;;;;;;;;;;;;;;;4990533;28;4535;-71
2024/04/07 15:30:41;;;;;;;;;;;;;;;;;;5005460;28;3977;-69
2024/04/07 15:33:06;;;;;;;;;;;;;;;;;;5008380;28;4568;-67
2024/04/07 15:35:31;;;;;;;;;;;;;;;;;;5008417;28;5463;-66
2024/04/07 15:37:57;;;;;;;;;;;;;;;;;;5008711;28;4872;-66
2024/04/07 15:40:22;;;;;;;;;;;;;;;;;;5008439;28;5299;-64
2024/04/07 15:42:47;;;;;;;;;;;;;;;;;;5007505;28;3600;-67
2024/04/07 15:45:13;;;;;;;;;;;;;;;;;;5001898;28;4972;-64
2024/04/07 15:47:38;;;;;;;;;;;;;;;;;;5008383;28;4800;-66
2024/04/07 15:50:04;;;;;;;;;;;;;;;;;;5013074;28;4516;-67
2024/04/07 15:52:30;;;;;;;;;;;;;;;;;;5005423;28;5113;-66
2024/04/07 15:54:56;;;;;;;;;;;;;;;;;;4990557;28;5123;-64
2024/04/07 15:57:21;;;;;;;;;;;;;;;;;;5006765;28;3397;-63
2024/04/07 15:59:46;;;;;;;;;;;;;;;;;;5007333;28;5050;-61
2024/04/07 16:02:12;;;;;;;;;;;;;;;;;;5007233;28;4578;-62
2024/04/07 16:04:38;;;;;;;;;;;;;;;;;;5008264;28;4716;-64
2024/04/07 16:07:04;;;;;;;;;;;;;;;;;;5009489;28;4668;-66
2024/04/07 16:09:30;;;;;;;;;;;;;;;;;;5008120;28;3318;-71
2024/04/07 16:11:55;;;;;;;;;;;;;;;;;;5003711;28;5024;-67
2024/04/07 16:14:21;;;;;;;;;;;;;;;;;;5005328;28;5151;-66
2024/04/07 16:16:47;;;;;;;;;;;;;;;;;;5004080;28;4740;-68
2024/04/07 16:19:12;;;;;;;;;;;;;;;;;;5005218;28;5069;-64
2024/04/07 16:21:37;;;;;;;;;;;;;;;;;;5007366;28;3551;-63
2024/04/07 16:24:04;;;;;;;;;;;;;;;;;;5015314;28;5020;-62
2024/04/07 16:26:29;;;;;;;;;;;;;;;;;;5007711;28;5060;-67
2024/04/07 16:28:55;;;;;;;;;;;;;;;;;;5003398;28;4539;-67
2024/04/07 16:31:20;;;;;;;;;;;;;;;;;;5007715;28;5217;-69
2024/04/07 16:33:45;;;;;;;;;;;;;;;;;;5007443;28;3932;-62
2024/04/07 16:36:11;;;;;;;;;;;;;;;;;;5008247;28;5020;-66
2024/04/07 16:38:36;;;;;;;;;;;;;;;;;;5004991;28;4808;-72
2024/04/07 16:41:03;;;;;;;;;;;;;;;;;;5006438;28;5270;-65
2024/04/07 16:43:28;;;;;;;;;;;;;;;;;;5004475;28;5112;-62
2024/04/07 16:45:54;;;;;;;;;;;;;;;;;;5006198;28;4572;-61
2024/04/07 16:48:20;;;;;;;;;;;;;;;;;;5004418;28;3564;-65
2024/04/07 16:50:58;;;;;;;;;;;;;;;;;;5005046;28;4579;-65
2024/04/07 16:53:24;;;;;;;;;;;;;;;;;;5005248;28;4529;-64
2024/04/07 16:55:49;;;;;;;;;;;;;;;;;;5005981;28;4770;-66
2024/04/07 16:58:15;;;;;;;;;;;;;;;;;;4986194;28;5111;-59